Time;durP1;ratioP1;P1;durP2;ratioP2;P2;SDS_P1;SDS_P2;PMS_P1;PMS_P2;Temp;Humidity;BMP_temperature;BMP_pressure;BME280_temperature;BME280_humidity;BME280_pressure;Samples;Min_cycle;Max_cycle;Signal;HPM_P1;HPM_P2
2021/05/14 00:00:38;;;;;;;1.00;0.30;;;10.40;99.90;;;;;;4992910;28;20019;-87
2021/05/14 00:03:04;;;;;;;0.75;0.30;;;10.00;99.90;;;;;;4995051;28;20391;-87
2021/05/14 00:05:29;;;;;;;1.33;0.40;;;10.00;99.90;;;;;;4993057;28;20112;-87
2021/05/14 00:07:55;;;;;;;0.60;0.30;;;10.00;99.90;;;;;;4994313;28;20030;-86
2021/05/14 00:10:22;;;;;;;1.52;0.40;;;10.00;99.90;;;;;;4993980;28;20027;-86
2021/05/14 00:12:49;;;;;;;0.75;0.38;;;10.00;99.90;;;;;;4993590;28;20110;-87
2021/05/14 00:15:16;;;;;;;0.70;0.22;;;10.00;99.90;;;;;;4994202;28;20033;-86
2021/05/14 00:17:42;;;;;;;0.85;0.30;;;10.00;99.90;;;;;;4992825;28;20030;-87
2021/05/14 00:20:09;;;;;;;0.30;0.20;;;10.00;99.90;;;;;;4993792;28;20105;-87
2021/05/14 00:22:35;;;;;;;1.15;0.30;;;10.00;99.90;;;;;;4993568;28;20053;-86
2021/05/14 00:25:00;;;;;;;0.70;0.30;;;10.00;99.90;;;;;;4994330;28;20092;-87
2021/05/14 00:27:26;;;;;;;1.05;0.35;;;9.90;99.90;;;;;;4994008;28;20176;-87
2021/05/14 00:29:52;;;;;;;0.68;0.30;;;10.00;99.90;;;;;;4989020;28;20046;-87
2021/05/14 00:32:18;;;;;;;2.15;0.40;;;10.00;99.90;;;;;;5007040;28;20025;-87
2021/05/14 00:34:43;;;;;;;1.17;0.30;;;10.00;99.90;;;;;;5014574;28;20014;-86
2021/05/14 00:37:09;;;;;;;1.67;0.35;;;9.80;99.90;;;;;;5006285;28;20399;-86
2021/05/14 00:39:34;;;;;;;0.68;0.30;;;9.90;99.90;;;;;;4976133;28;20091;-86
2021/05/14 00:42:00;;;;;;;1.17;0.40;;;10.00;99.90;;;;;;4991024;28;20081;-85
2021/05/14 00:44:33;;;;;;;1.48;0.35;;;9.90;99.90;;;;;;4975667;28;20058;-87
2021/05/14 00:47:02;;;;;;;0.85;0.30;;;9.90;99.90;;;;;;4993870;28;20415;-87
2021/05/14 00:49:27;;;;;;;1.77;0.35;;;9.90;99.90;;;;;;4993809;28;20062;-86
2021/05/14 00:51:55;;;;;;;0.73;0.30;;;9.90;99.90;;;;;;4993020;28;20038;-87
2021/05/14 00:54:21;;;;;;;0.60;0.35;;;9.90;99.90;;;;;;4994272;28;20069;-87
2021/05/14 00:56:47;;;;;;;0.70;0.30;;;9.90;99.90;;;;;;4975727;28;20041;-87
2021/05/14 00:59:13;;;;;;;0.73;0.40;;;9.90;99.90;;;;;;4994539;28;20030;-86
2021/05/14 01:01:39;;;;;;;2.10;0.60;;;9.80;99.90;;;;;;4997124;28;20031;-87
2021/05/14 01:04:05;;;;;;;1.77;0.38;;;9.80;99.90;;;;;;4997228;28;20030;-86
2021/05/14 01:06:31;;;;;;;0.93;0.30;;;9.80;99.90;;;;;;4983043;28;20624;-86
2021/05/14 01:08:58;;;;;;;1.60;0.30;;;9.80;99.90;;;;;;4978089;28;20077;-86
2021/05/14 01:11:24;;;;;;;1.55;0.30;;;9.70;99.90;;;;;;4977271;28;20035;-86
2021/05/14 01:13:50;;;;;;;0.93;0.30;;;9.90;99.90;;;;;;4960093;28;20611;-85
2021/05/14 01:16:15;;;;;;;1.45;0.40;;;9.70;99.90;;;;;;4996309;28;20072;-87
2021/05/14 01:18:41;;;;;;;0.95;0.30;;;9.60;99.90;;;;;;4996144;28;20360;-86
2021/05/14 01:21:07;;;;;;;1.33;0.30;;;9.60;99.90;;;;;;4994695;28;20022;-86
2021/05/14 01:23:32;;;;;;;1.30;0.40;;;9.60;99.90;;;;;;4994056;28;20018;-85
2021/05/14 01:25:58;;;;;;;0.75;0.30;;;9.70;99.90;;;;;;4995366;28;20495;-86
2021/05/14 01:28:24;;;;;;;2.20;0.30;;;9.60;99.90;;;;;;4995290;28;20054;-86
2021/05/14 01:30:49;;;;;;;1.30;0.35;;;9.60;99.90;;;;;;4995394;28;20160;-86
2021/05/14 01:33:15;;;;;;;1.33;0.30;;;9.60;99.90;;;;;;4985296;28;20049;-86
2021/05/14 01:35:41;;;;;;;1.05;0.30;;;9.70;99.90;;;;;;4982143;28;20106;-86
2021/05/14 01:38:07;;;;;;;3.30;0.85;;;9.60;99.90;;;;;;4994490;28;20431;-86
2021/05/14 01:40:37;;;;;;;1.88;0.45;;;9.60;99.90;;;;;;4994842;28;20387;-86
2021/05/14 01:43:03;;;;;;;0.60;0.20;;;9.80;99.90;;;;;;4978719;28;20024;-86
2021/05/14 01:45:29;;;;;;;2.40;0.50;;;9.60;99.90;;;;;;5000298;28;20088;-86
2021/05/14 01:47:55;;;;;;;1.05;0.32;;;9.60;99.90;;;;;;4996825;28;20589;-86
2021/05/14 01:50:21;;;;;;;1.45;0.35;;;9.60;99.90;;;;;;4991490;28;20109;-86
2021/05/14 01:52:46;;;;;;;1.15;0.38;;;9.50;99.90;;;;;;4960127;28;20058;-87
2021/05/14 01:55:13;;;;;;;2.13;0.30;;;9.50;99.90;;;;;;4977389;28;20054;-85
2021/05/14 01:57:39;;;;;;;1.25;0.30;;;9.50;99.90;;;;;;4977055;28;20034;-86
2021/05/14 02:00:06;;;;;;;3.13;0.40;;;9.50;99.90;;;;;;4986190;28;20018;-86
2021/05/14 02:02:32;;;;;;;0.88;0.30;;;9.50;99.90;;;;;;4978333;28;20033;-86
2021/05/14 02:04:58;;;;;;;1.90;0.35;;;9.50;99.90;;;;;;4982640;28;20029;-86
2021/05/14 02:07:23;;;;;;;0.90;0.30;;;9.50;99.90;;;;;;5011982;28;20488;-84
2021/05/14 02:09:51;;;;;;;1.10;0.38;;;9.40;99.90;;;;;;4995129;28;20037;-86
2021/05/14 02:12:17;;;;;;;0.98;0.30;;;9.40;99.90;;;;;;4995081;28;20037;-86
2021/05/14 02:14:43;;;;;;;0.73;0.35;;;9.40;99.90;;;;;;4978913;28;20539;-86
2021/05/14 02:17:08;;;;;;;1.48;0.38;;;9.30;99.90;;;;;;4996382;28;20022;-86
2021/05/14 02:19:34;;;;;;;2.03;0.40;;;9.30;99.90;;;;;;4978607;28;20027;-85
2021/05/14 02:22:00;;;;;;;0.93;0.32;;;9.40;99.90;;;;;;4978120;28;20114;-84
2021/05/14 02:24:25;;;;;;;1.27;0.30;;;9.30;99.90;;;;;;4997070;28;20026;-87
2021/05/14 02:26:51;;;;;;;1.40;0.30;;;9.30;99.90;;;;;;4994291;28;20062;-87
2021/05/14 02:29:17;;;;;;;1.27;0.30;;;9.30;99.90;;;;;;4996285;28;20065;-87
2021/05/14 02:31:42;;;;;;;1.08;0.30;;;9.40;99.90;;;;;;4977569;28;20483;-87
2021/05/14 02:34:08;;;;;;;1.42;0.40;;;9.30;99.90;;;;;;4995582;28;20030;-86
2021/05/14 02:36:33;;;;;;;0.98;0.40;;;9.30;99.90;;;;;;4989627;28;20030;-87
2021/05/14 02:38:59;;;;;;;1.58;0.30;;;9.20;99.90;;;;;;4995733;28;20538;-87
2021/05/14 02:41:25;;;;;;;1.17;0.40;;;9.30;99.90;;;;;;4995815;28;20029;-86
2021/05/14 02:43:50;;;;;;;1.27;0.40;;;9.30;99.90;;;;;;4993838;28;20033;-85
2021/05/14 02:46:16;;;;;;;0.63;0.20;;;9.30;99.90;;;;;;4995323;28;20076;-87
2021/05/14 02:48:41;;;;;;;1.02;0.47;;;9.20;99.90;;;;;;5010703;28;20033;-87
2021/05/14 02:51:07;;;;;;;0.75;0.40;;;9.20;99.90;;;;;;5004713;28;20041;-87
2021/05/14 02:53:34;;;;;;;1.35;0.30;;;9.10;99.90;;;;;;4977009;28;20084;-86
2021/05/14 02:56:00;;;;;;;2.22;0.40;;;9.00;99.90;;;;;;4995170;28;20447;-87
2021/05/14 02:58:25;;;;;;;1.13;0.50;;;8.90;99.90;;;;;;4995658;28;20030;-86
2021/05/14 03:00:51;;;;;;;1.17;0.40;;;8.90;99.90;;;;;;4993650;28;20030;-86
2021/05/14 03:03:17;;;;;;;2.22;0.45;;;8.80;99.90;;;;;;4993630;28;20026;-87
2021/05/14 03:05:42;;;;;;;2.20;0.35;;;9.00;99.90;;;;;;4995822;28;20673;-87
2021/05/14 03:08:08;;;;;;;1.23;0.40;;;8.90;99.90;;;;;;4995818;28;20054;-87
2021/05/14 03:10:34;;;;;;;1.40;0.65;;;8.90;99.90;;;;;;4993585;28;20118;-87
2021/05/14 03:12:59;;;;;;;1.33;0.47;;;9.00;99.90;;;;;;4993292;28;20038;-86
2021/05/14 03:15:25;;;;;;;1.83;0.50;;;9.00;99.90;;;;;;4994973;28;20038;-86
2021/05/14 03:17:51;;;;;;;1.20;0.32;;;9.00;99.90;;;;;;4994523;28;20110;-87
2021/05/14 03:20:16;;;;;;;0.75;0.30;;;9.10;99.90;;;;;;4993985;28;20065;-87
2021/05/14 03:22:42;;;;;;;0.95;0.30;;;9.10;99.90;;;;;;4976350;28;20011;-87
2021/05/14 03:25:10;;;;;;;1.05;0.40;;;9.10;99.90;;;;;;4995013;28;20049;-87
2021/05/14 03:27:36;;;;;;;0.85;0.35;;;9.10;99.90;;;;;;4994402;28;20054;-87
2021/05/14 03:30:04;;;;;;;1.33;0.45;;;9.10;99.90;;;;;;4995369;28;20026;-87
2021/05/14 03:32:30;;;;;;;1.10;0.40;;;8.90;99.90;;;;;;4992943;28;20026;-87
2021/05/14 03:34:56;;;;;;;1.05;0.38;;;8.90;99.90;;;;;;4993441;28;20033;-86
2021/05/14 03:37:21;;;;;;;1.02;0.40;;;8.80;99.90;;;;;;4994778;28;20023;-88
2021/05/14 03:39:51;;;;;;;1.58;0.47;;;8.80;99.90;;;;;;4994662;28;20109;-86
2021/05/14 03:42:23;;;;;;;3.03;0.70;;;8.80;99.90;;;;;;4975815;28;20023;-86
2021/05/14 03:44:48;;;;;;;1.75;0.75;;;8.70;99.90;;;;;;4994298;28;20376;-87
2021/05/14 03:47:14;;;;;;;1.38;0.47;;;8.70;99.90;;;;;;4993305;28;20058;-86
2021/05/14 03:49:40;;;;;;;1.08;0.38;;;8.70;99.90;;;;;;4994412;28;20026;-87
2021/05/14 03:52:07;;;;;;;1.58;0.45;;;8.70;99.90;;;;;;5013845;28;20507;-87
2021/05/14 03:54:33;;;;;;;1.67;0.50;;;8.80;99.90;;;;;;5013920;28;20025;-87
2021/05/14 03:56:59;;;;;;;0.73;0.38;;;8.60;99.90;;;;;;5012831;28;20089;-87
2021/05/14 03:59:25;;;;;;;3.03;0.50;;;8.70;99.90;;;;;;5012736;28;20069;-87
2021/05/14 04:01:50;;;;;;;0.88;0.40;;;8.70;99.90;;;;;;4976612;28;20022;-86
2021/05/14 04:04:17;;;;;;;0.77;0.35;;;8.70;99.90;;;;;;4993743;28;20102;-87
2021/05/14 04:06:42;;;;;;;1.15;0.40;;;8.60;99.90;;;;;;4992018;28;20030;-84
2021/05/14 04:09:08;;;;;;;2.03;0.60;;;8.50;99.90;;;;;;4993950;28;20110;-86
2021/05/14 04:16:43;;;;;;;1.50;0.52;;;8.20;99.90;;;;;;4992537;28;20112;-87
2021/05/14 04:19:10;;;;;;;1.23;0.50;;;8.20;99.90;;;;;;4992381;28;20471;-87
2021/05/14 04:21:35;;;;;;;1.10;0.30;;;8.20;99.90;;;;;;4994350;28;20109;-87
2021/05/14 04:24:02;;;;;;;1.83;0.50;;;8.30;99.90;;;;;;4993587;28;20161;-86
2021/05/14 04:26:28;;;;;;;1.23;0.40;;;8.30;99.90;;;;;;4992586;28;20069;-87
2021/05/14 04:28:54;;;;;;;1.10;0.50;;;8.40;99.90;;;;;;4991819;28;20034;-87
2021/05/14 04:31:19;;;;;;;1.60;0.40;;;8.50;99.90;;;;;;4993518;28;20035;-87
2021/05/14 04:33:45;;;;;;;1.83;0.47;;;8.60;99.90;;;;;;4993795;28;20528;-87
2021/05/14 04:36:11;;;;;;;1.20;0.50;;;8.60;99.90;;;;;;4998473;28;20088;-87
2021/05/14 04:38:36;;;;;;;0.80;0.40;;;8.60;99.90;;;;;;4998162;28;20058;-87
2021/05/14 04:41:02;;;;;;;0.90;0.40;;;8.70;99.90;;;;;;4997373;28;20098;-88
2021/05/14 04:43:28;;;;;;;1.60;0.50;;;8.80;99.90;;;;;;4996192;28;20026;-88
2021/05/14 04:45:53;;;;;;;1.52;0.45;;;8.80;99.90;;;;;;4997489;28;20463;-85
2021/05/14 04:48:19;;;;;;;0.63;0.32;;;8.90;99.90;;;;;;4998281;28;20045;-87
2021/05/14 04:50:45;;;;;;;0.52;0.30;;;9.10;99.90;;;;;;4981348;28;20034;-87
2021/05/14 04:53:13;;;;;;;1.45;0.50;;;9.00;99.90;;;;;;4979052;28;20037;-87
2021/05/14 04:55:39;;;;;;;2.55;0.90;;;8.90;99.90;;;;;;4978141;28;20093;-87
2021/05/14 04:58:05;;;;;;;1.48;0.50;;;8.80;99.90;;;;;;4977254;28;20483;-87
2021/05/14 05:00:31;;;;;;;1.45;0.57;;;8.60;99.90;;;;;;4990548;28;20054;-87
2021/05/14 05:02:57;;;;;;;1.52;0.45;;;8.70;99.90;;;;;;4979568;28;20077;-86
2021/05/14 05:05:23;;;;;;;3.67;0.50;;;8.60;99.90;;;;;;4998099;28;20030;-87
2021/05/14 05:07:49;;;;;;;2.13;0.60;;;8.60;99.90;;;;;;4979742;28;20735;-86
2021/05/14 05:10:15;;;;;;;1.33;0.40;;;8.60;99.90;;;;;;4979999;28;20026;-87
2021/05/14 05:12:41;;;;;;;1.00;0.50;;;8.70;99.90;;;;;;4979266;28;20124;-87
2021/05/14 05:15:08;;;;;;;2.72;0.80;;;8.70;99.90;;;;;;4979418;28;20407;-87
2021/05/14 05:17:34;;;;;;;1.08;0.30;;;8.70;99.90;;;;;;4996751;28;20022;-88
2021/05/14 05:19:59;;;;;;;2.05;0.50;;;8.70;99.90;;;;;;4996748;28;20040;-87
2021/05/14 05:22:25;;;;;;;1.07;0.50;;;8.80;99.90;;;;;;4996648;28;20022;-86
2021/05/14 05:24:51;;;;;;;2.03;0.50;;;8.80;99.90;;;;;;4979482;28;20030;-87
2021/05/14 05:27:16;;;;;;;1.27;0.47;;;8.80;99.90;;;;;;4996827;28;20026;-85
2021/05/14 05:29:42;;;;;;;2.65;0.68;;;8.90;99.90;;;;;;4996776;28;20037;-88
2021/05/14 05:32:08;;;;;;;2.72;0.47;;;9.20;99.90;;;;;;4996916;28;20026;-88
2021/05/14 05:34:34;;;;;;;0.85;0.40;;;9.30;99.90;;;;;;4996092;28;20026;-88
2021/05/14 05:36:59;;;;;;;2.08;0.60;;;9.40;99.90;;;;;;4997120;28;20030;-88
2021/05/14 05:39:25;;;;;;;0.95;0.40;;;9.50;99.90;;;;;;4997071;28;20113;-87
2021/05/14 05:41:51;;;;;;;1.35;0.40;;;9.70;99.90;;;;;;4996062;28;20031;-86
2021/05/14 05:44:16;;;;;;;1.05;0.40;;;9.90;99.90;;;;;;4996286;28;20030;-86
2021/05/14 05:46:42;;;;;;;2.00;0.47;;;10.00;99.90;;;;;;4976281;28;20030;-86
2021/05/14 05:49:08;;;;;;;0.95;0.40;;;10.20;99.90;;;;;;4993760;28;20038;-86
2021/05/14 05:51:34;;;;;;;0.65;0.40;;;10.30;99.90;;;;;;4957226;28;20037;-86
2021/05/14 05:54:00;;;;;;;2.95;0.30;;;10.50;99.90;;;;;;4990558;28;20065;-85
2021/05/14 05:56:26;;;;;;;1.08;0.40;;;10.60;99.90;;;;;;4992202;28;20041;-86
2021/05/14 05:58:53;;;;;;;1.30;0.40;;;10.70;99.90;;;;;;4993545;28;20038;-86
2021/05/14 06:01:19;;;;;;;1.42;0.45;;;10.80;99.90;;;;;;4991194;28;20103;-87
2021/05/14 06:03:45;;;;;;;1.00;0.40;;;10.90;99.90;;;;;;4991974;28;20026;-87
2021/05/14 06:06:11;;;;;;;2.25;0.43;;;11.00;99.90;;;;;;4974890;28;20033;-87
2021/05/14 06:08:37;;;;;;;0.32;0.20;;;11.00;99.90;;;;;;4992089;28;20104;-86
2021/05/14 06:11:03;;;;;;;1.83;0.30;;;11.00;99.90;;;;;;4987905;28;20517;-86
2021/05/14 06:13:31;;;;;;;0.80;0.30;;;11.20;99.90;;;;;;4982893;28;20038;-87
2021/05/14 06:15:59;;;;;;;0.65;0.30;;;11.30;99.90;;;;;;4989238;28;20113;-87
2021/05/14 06:18:26;;;;;;;0.70;0.30;;;11.40;99.90;;;;;;4987480;28;20040;-87
2021/05/14 06:20:53;;;;;;;3.70;0.28;;;11.60;99.90;;;;;;4992758;28;20025;-86
2021/05/14 06:23:19;;;;;;;2.70;0.20;;;11.80;99.90;;;;;;4993154;28;20018;-86
2021/05/14 06:25:44;;;;;;;0.90;0.20;;;11.80;99.90;;;;;;4991414;28;20113;-86
2021/05/14 06:28:17;;;;;;;1.35;0.30;;;11.90;99.90;;;;;;4993859;28;20070;-86
2021/05/14 06:30:43;;;;;;;0.30;0.13;;;12.10;99.90;;;;;;4993337;28;20155;-86
2021/05/14 06:33:09;;;;;;;1.98;0.20;;;12.20;99.90;;;;;;4991743;28;20105;-86
2021/05/14 06:35:35;;;;;;;0.20;0.10;;;12.20;99.90;;;;;;4993370;28;20045;-85
2021/05/14 06:38:00;;;;;;;0.45;0.15;;;12.40;99.90;;;;;;4988442;28;20035;-86
2021/05/14 06:40:27;;;;;;;0.40;0.10;;;12.40;99.90;;;;;;5009365;28;20446;-85
2021/05/14 06:42:52;;;;;;;1.10;0.15;;;12.60;99.90;;;;;;5005393;28;20383;-85
2021/05/14 06:45:18;;;;;;;0.55;0.20;;;12.70;99.90;;;;;;4974891;28;20524;-86
2021/05/14 06:47:45;;;;;;;0.65;0.20;;;12.70;99.90;;;;;;4992456;28;20023;-86
2021/05/14 06:50:11;;;;;;;0.80;0.10;;;12.80;99.90;;;;;;4993136;28;20030;-85
2021/05/14 06:52:37;;;;;;;1.25;0.20;;;13.00;99.90;;;;;;4992235;28;20522;-84
2021/05/14 06:55:08;;;;;;;0.82;0.20;;;12.90;99.90;;;;;;4992578;28;20022;-86
2021/05/14 06:57:35;;;;;;;0.70;0.20;;;13.00;99.90;;;;;;4985756;28;20165;-85
2021/05/14 07:00:01;;;;;;;0.88;0.10;;;12.60;99.90;;;;;;4987600;28;20030;-85
2021/05/14 07:02:26;;;;;;;2.03;0.10;;;12.80;99.90;;;;;;4968594;28;20030;-86
2021/05/14 07:04:52;;;;;;;0.25;0.10;;;13.10;99.90;;;;;;4992256;28;20022;-85
2021/05/14 07:07:18;;;;;;;0.40;0.10;;;13.30;99.90;;;;;;4991183;28;20018;-85
2021/05/14 07:09:44;;;;;;;0.22;0.05;;;13.40;99.90;;;;;;4992191;28;20405;-84
2021/05/14 07:12:10;;;;;;;0.88;0.13;;;13.70;99.90;;;;;;4991745;28;20046;-85
2021/05/14 07:14:36;;;;;;;0.30;0.15;;;13.90;99.90;;;;;;4992527;28;20029;-84
2021/05/14 07:17:01;;;;;;;0.50;0.10;;;14.00;99.90;;;;;;4992222;28;20065;-86
2021/05/14 07:19:27;;;;;;;0.15;0.10;;;14.10;99.90;;;;;;4975297;28;20034;-87
2021/05/14 07:21:54;;;;;;;0.43;0.10;;;14.20;99.90;;;;;;4991398;28;20026;-87
2021/05/14 07:24:20;;;;;;;0.77;0.15;;;14.20;99.90;;;;;;4991485;28;20034;-87
2021/05/14 07:26:45;;;;;;;0.13;0.05;;;14.50;99.90;;;;;;4991642;28;20026;-87
2021/05/14 07:29:11;;;;;;;0.90;0.20;;;14.60;99.90;;;;;;4992657;28;20531;-87
2021/05/14 07:31:37;;;;;;;0.47;0.17;;;14.60;99.90;;;;;;4985543;28;20027;-87
2021/05/14 07:34:02;;;;;;;0.73;0.10;;;14.60;99.90;;;;;;4974189;28;20027;-85
2021/05/14 07:36:28;;;;;;;1.45;0.20;;;14.40;99.90;;;;;;4990924;28;20349;-85
2021/05/14 07:38:54;;;;;;;1.02;0.10;;;14.30;99.90;;;;;;4992079;28;20030;-85
2021/05/14 07:41:20;;;;;;;1.45;0.38;;;14.10;99.90;;;;;;4992183;28;20026;-84
2021/05/14 07:43:46;;;;;;;0.03;0.00;;;13.90;99.90;;;;;;4980542;28;20045;-87
2021/05/14 07:46:11;;;;;;;0.13;0.05;;;14.00;99.90;;;;;;4975260;28;20387;-85
2021/05/14 07:48:37;;;;;;;0.10;0.08;;;13.70;99.90;;;;;;4991969;28;20033;-85
2021/05/14 07:51:03;;;;;;;0.20;0.10;;;14.00;99.90;;;;;;4992268;28;20479;-86
2021/05/14 07:53:28;;;;;;;2.00;0.10;;;14.30;99.90;;;;;;4992019;28;20100;-84
2021/05/14 07:55:54;;;;;;;0.60;0.10;;;14.30;99.90;;;;;;4990996;28;20026;-86
2021/05/14 07:58:20;;;;;;;0.52;0.10;;;14.40;99.90;;;;;;4991365;28;20030;-85
2021/05/14 08:00:48;;;;;;;2.33;0.10;;;14.50;99.90;;;;;;4992491;28;20029;-86
2021/05/14 08:03:15;;;;;;;0.38;0.10;;;14.50;99.90;;;;;;4991801;28;20024;-85
2021/05/14 08:05:40;;;;;;;1.40;0.15;;;14.20;99.90;;;;;;4992055;28;20073;-87
2021/05/14 08:08:15;;;;;;;0.43;0.20;;;14.20;99.90;;;;;;4990152;28;20073;-86
2021/05/14 08:10:41;;;;;;;0.90;0.20;;;14.10;99.90;;;;;;4991810;28;20098;-85
2021/05/14 08:13:07;;;;;;;2.80;0.22;;;14.10;99.90;;;;;;4992448;28;20028;-88
2021/05/14 08:15:33;;;;;;;1.20;0.20;;;14.10;99.90;;;;;;4995050;28;20109;-84
2021/05/14 08:17:59;;;;;;;1.15;0.10;;;13.90;99.90;;;;;;4997661;28;20029;-86
2021/05/14 08:20:25;;;;;;;0.35;0.00;;;13.70;99.90;;;;;;4996484;28;20018;-86
2021/05/14 08:22:51;;;;;;;2.47;0.15;;;13.80;99.90;;;;;;4999296;28;20053;-86
2021/05/14 08:25:17;;;;;;;0.68;0.15;;;13.80;99.90;;;;;;4996957;28;20026;-85
2021/05/14 08:27:43;;;;;;;0.88;0.10;;;14.10;99.40;;;;;;5000319;28;20018;-87
2021/05/14 08:30:12;;;;;;;0.88;0.10;;;14.60;98.80;;;;;;4976522;28;20042;-87
2021/05/14 08:32:37;;;;;;;0.85;0.00;;;14.90;97.80;;;;;;4965643;28;20701;-85
2021/05/14 08:35:05;;;;;;;0.40;0.10;;;15.20;94.60;;;;;;4994047;28;20022;-85
2021/05/14 08:37:30;;;;;;;0.40;0.10;;;15.20;94.90;;;;;;4991493;28;20030;-86
2021/05/14 08:39:56;;;;;;;1.95;0.20;;;15.30;95.20;;;;;;4996973;28;20081;-86
2021/05/14 08:42:22;;;;;;;0.55;0.17;;;15.50;95.00;;;;;;4998612;28;20493;-86
2021/05/14 08:44:50;;;;;;;0.43;0.00;;;15.80;94.20;;;;;;4992957;28;20030;-86
2021/05/14 08:47:16;;;;;;;0.75;0.10;;;15.80;94.70;;;;;;4992235;28;20692;-86
2021/05/14 08:49:46;;;;;;;0.20;0.10;;;15.70;93.60;;;;;;4992762;28;20034;-86
2021/05/14 08:52:12;;;;;;;0.20;0.10;;;16.10;93.00;;;;;;4987290;28;20031;-85
2021/05/14 08:54:44;;;;;;;0.75;0.10;;;16.30;91.00;;;;;;4985532;28;20026;-85
2021/05/14 08:57:10;;;;;;;0.98;0.10;;;16.60;91.00;;;;;;4992232;28;20031;-86
2021/05/14 08:59:38;;;;;;;0.20;0.10;;;16.80;90.60;;;;;;4992928;28;20486;-87
2021/05/14 09:02:04;;;;;;;0.65;0.17;;;16.70;89.40;;;;;;4968384;28;20081;-85
2021/05/14 09:04:31;;;;;;;0.90;0.10;;;16.10;90.30;;;;;;4987154;28;20128;-85
2021/05/14 09:06:57;;;;;;;0.73;0.10;;;16.00;91.40;;;;;;5006103;28;20094;-86
2021/05/14 09:09:23;;;;;;;0.45;0.10;;;15.90;91.60;;;;;;4981285;28;20035;-86
2021/05/14 09:11:52;;;;;;;0.57;0.10;;;15.90;93.10;;;;;;5001571;28;20065;-87
2021/05/14 09:14:42;;;;;;;0.50;0.10;;;15.70;92.80;;;;;;5004190;28;20049;-87
2021/05/14 09:17:15;;;;;;;1.55;0.10;;;15.60;93.10;;;;;;4993336;28;20077;-87
2021/05/14 09:19:46;;;;;;;0.50;0.10;;;16.10;92.60;;;;;;4988520;28;20109;-87
2021/05/14 09:22:17;;;;;;;1.05;0.17;;;16.60;89.80;;;;;;5004704;28;20027;-87
2021/05/14 09:24:47;;;;;;;0.20;0.10;;;17.00;89.10;;;;;;4981266;28;20046;-87
2021/05/14 09:27:28;;;;;;;0.38;0.10;;;17.50;85.10;;;;;;5002155;28;20018;-87
2021/05/14 09:29:57;;;;;;;0.40;0.05;;;18.00;84.90;;;;;;4997485;28;20026;-88
2021/05/14 09:32:27;;;;;;;0.93;0.10;;;18.20;79.00;;;;;;4980725;28;20037;-87
2021/05/14 09:34:56;;;;;;;0.75;0.10;;;18.50;81.30;;;;;;4995884;28;20030;-86
2021/05/14 09:37:25;;;;;;;0.10;0.10;;;18.60;80.70;;;;;;4993044;28;20514;-86
2021/05/14 09:40:15;;;;;;;0.65;0.10;;;18.10;79.20;;;;;;4992055;28;20029;-86
2021/05/14 09:42:41;;;;;;;1.27;0.10;;;17.70;79.50;;;;;;4985859;28;20044;-88
2021/05/14 09:45:17;;;;;;;5.43;0.50;;;17.20;82.20;;;;;;4995132;28;20110;-89
2021/05/14 09:47:56;;;;;;;0.75;0.30;;;16.90;82.10;;;;;;4992739;28;20014;-86
2021/05/14 09:50:37;;;;;;;1.75;0.30;;;16.70;83.30;;;;;;5006921;28;20119;-87
2021/05/14 09:53:10;;;;;;;0.15;0.10;;;16.50;86.70;;;;;;4993387;28;20022;-87
2021/05/14 09:55:40;;;;;;;1.25;0.20;;;16.30;88.50;;;;;;5001697;28;20019;-86
2021/05/14 09:58:11;;;;;;;0.43;0.13;;;16.20;89.10;;;;;;4994584;28;20029;-88
2021/05/14 10:00:44;;;;;;;0.38;0.10;;;16.10;90.50;;;;;;4998489;28;20023;-88
2021/05/14 10:03:15;;;;;;;1.35;0.30;;;16.00;91.30;;;;;;4991785;28;20029;-86
2021/05/14 10:05:41;;;;;;;2.33;0.20;;;15.90;91.40;;;;;;4975189;28;20030;-86
2021/05/14 10:08:07;;;;;;;1.80;0.20;;;15.90;91.40;;;;;;4986926;28;20117;-86
2021/05/14 10:10:35;;;;;;;0.75;0.10;;;15.60;91.60;;;;;;4991458;28;20045;-88
2021/05/14 10:13:01;;;;;;;0.70;0.10;;;15.60;92.30;;;;;;4971632;28;20030;-86
2021/05/14 10:15:28;;;;;;;1.58;0.30;;;15.30;93.10;;;;;;4992095;28;20033;-88
2021/05/14 10:17:55;;;;;;;1.63;0.10;;;15.20;94.30;;;;;;4973056;28;20031;-86
2021/05/14 10:20:29;;;;;;;0.80;0.17;;;15.00;95.30;;;;;;4995343;28;20042;-86
2021/05/14 10:22:57;;;;;;;0.70;0.28;;;14.80;96.00;;;;;;4984504;28;20019;-86
2021/05/14 10:25:38;;;;;;;1.08;0.20;;;14.80;97.40;;;;;;4977188;28;20042;-88
2021/05/14 10:28:12;;;;;;;1.13;0.20;;;14.60;99.90;;;;;;4976735;28;20386;-88
2021/05/14 10:31:05;;;;;;;0.63;0.20;;;14.60;99.90;;;;;;4995592;28;20545;-90
2021/05/14 10:33:44;;;;;;;2.30;0.20;;;14.50;99.90;;;;;;4970411;28;20424;-89
2021/05/14 10:36:20;;;;;;;0.57;0.17;;;14.30;99.90;;;;;;4987417;28;20026;-90
2021/05/14 10:39:04;;;;;;;1.30;0.30;;;14.10;99.90;;;;;;4992942;28;20053;-89
2021/05/14 10:41:31;;;;;;;1.02;0.30;;;14.00;99.90;;;;;;4973792;28;20406;-89
2021/05/14 10:49:01;;;;;;;1.15;0.30;;;13.70;99.90;;;;;;5011837;28;20050;-86
2021/05/14 10:51:50;;;;;;;1.02;0.20;;;13.60;99.90;;;;;;5012564;28;20076;-86
2021/05/14 10:54:43;;;;;;;1.00;0.20;;;13.50;99.90;;;;;;4988406;28;20034;-87
2021/05/14 10:57:13;;;;;;;0.22;0.10;;;13.50;99.90;;;;;;4996014;28;20021;-86
2021/05/14 10:59:41;;;;;;;0.47;0.10;;;13.80;99.90;;;;;;4995928;28;20440;-86
2021/05/14 11:02:28;;;;;;;2.03;0.70;;;14.40;99.90;;;;;;4995772;28;20057;-86
2021/05/14 11:05:00;;;;;;;0.32;0.10;;;15.20;99.90;;;;;;4982810;28;20034;-86
2021/05/14 11:07:31;;;;;;;;;;;16.00;99.90;;;;;;4995552;28;20049;-87
2021/05/14 11:10:12;;;;;;;0.47;0.10;;;16.60;99.90;;;;;;4995543;28;19905;-87
2021/05/14 11:12:40;;;;;;;2.05;0.20;;;17.00;98.50;;;;;;4998963;28;20030;-86
2021/05/14 11:15:29;;;;;;;0.40;0.20;;;17.20;97.50;;;;;;4999620;28;20032;-87
2021/05/14 11:18:13;;;;;;;0.60;0.20;;;17.10;99.00;;;;;;4993670;28;20037;-86
2021/05/14 11:20:50;;;;;;;0.73;0.10;;;17.30;98.90;;;;;;4999586;28;20025;-86
2021/05/14 11:23:42;;;;;;;0.75;0.20;;;17.50;98.80;;;;;;4990647;28;20042;-86
2021/05/14 11:26:17;;;;;;;0.82;0.20;;;17.80;96.10;;;;;;4990926;28;20077;-86
2021/05/14 11:28:44;;;;;;;0.43;0.10;;;17.90;94.20;;;;;;5014895;28;20474;-86
2021/05/14 11:31:13;;;;;;;0.70;0.30;;;18.00;95.40;;;;;;4998961;28;20064;-86
2021/05/14 11:33:46;;;;;;;1.48;0.20;;;17.80;95.00;;;;;;4992258;28;20064;-86
2021/05/14 11:36:12;;;;;;;1.67;0.20;;;17.70;97.50;;;;;;4998767;28;20057;-86
2021/05/14 11:38:47;;;;;;;0.40;0.10;;;17.80;97.10;;;;;;5000382;28;20025;-85
2021/05/14 11:41:28;;;;;;;0.30;0.10;;;18.10;97.30;;;;;;5014740;28;20034;-84
2021/05/14 11:44:04;;;;;;;1.27;0.30;;;18.40;96.10;;;;;;5008595;23;20116;-91
2021/05/14 11:46:35;;;;;;;1.63;0.40;;;19.00;93.30;;;;;;5007375;28;20039;-90
2021/05/14 11:49:11;;;;;;;2.17;0.30;;;19.60;91.70;;;;;;5009498;28;20024;-89
2021/05/14 11:52:02;;;;;;;1.17;0.22;;;20.00;90.40;;;;;;4999851;28;20023;-92
2021/05/14 11:54:45;;;;;;;1.55;0.17;;;20.30;84.40;;;;;;5004299;28;20022;-91
2021/05/14 11:57:12;;;;;;;0.65;0.20;;;20.00;85.80;;;;;;4999769;28;20026;-92
2021/05/14 11:59:44;;;;;;;3.30;0.20;;;20.30;78.60;;;;;;4998295;28;20026;-92
2021/05/14 12:02:38;;;;;;;0.77;0.32;;;20.60;78.40;;;;;;5017750;28;20022;-87
2021/05/14 12:05:05;;;;;;;2.75;0.20;;;20.10;79.10;;;;;;5007979;28;20022;-91
2021/05/14 12:07:34;;;;;;;0.98;0.22;;;20.30;80.10;;;;;;5015449;28;20010;-91
2021/05/14 12:10:06;;;;;;;1.10;0.25;;;20.70;78.10;;;;;;4998859;28;20002;-94
2021/05/14 12:12:39;;;;;;;0.22;0.10;;;21.10;77.50;;;;;;5005346;28;20029;-92
2021/05/14 12:15:38;;;;;;;0.40;0.10;;;21.00;72.90;;;;;;4994081;28;20039;-92
2021/05/14 12:19:08;;;;;;;;;;;;;;;;;;;;;
2021/05/14 12:21:46;;;;;;;0.00;0.00;;;21.10;69.00;;;;;;4931479;29;20117;-92
2021/05/14 12:24:22;;;;;;;1.27;0.15;;;20.90;72.10;;;;;;4990206;28;20007;-91
2021/05/14 12:27:00;;;;;;;0.43;0.10;;;21.40;70.30;;;;;;4993085;28;20026;-93
2021/05/14 12:29:45;;;;;;;1.30;0.20;;;21.00;74.30;;;;;;5008882;28;20037;-92
2021/05/14 12:32:24;;;;;;;0.55;0.10;;;21.00;72.10;;;;;;5001132;28;20018;-92
2021/05/14 12:35:21;;;;;;;2.75;0.20;;;21.10;70.80;;;;;;4995179;28;20399;-94
2021/05/14 12:37:58;;;;;;;0.80;0.20;;;21.40;68.90;;;;;;4973297;28;20491;-92
2021/05/14 12:40:40;;;;;;;1.02;0.13;;;21.50;66.30;;;;;;4991281;28;20054;-92
2021/05/14 12:43:27;;;;;;;0.38;0.00;;;22.10;63.80;;;;;;5007992;28;20036;-93
2021/05/14 12:46:07;;;;;;;2.25;0.15;;;22.10;63.70;;;;;;4983852;28;20026;-92
2021/05/14 12:48:40;;;;;;;1.90;0.10;;;22.20;62.40;;;;;;4975174;28;20509;-91
2021/05/14 12:51:06;;;;;;;0.32;0.10;;;21.80;60.90;;;;;;4979121;28;20018;-90
2021/05/14 12:53:38;;;;;;;1.20;0.10;;;21.40;63.20;;;;;;4981270;28;20046;-95
2021/05/14 12:56:29;;;;;;;2.20;0.10;;;20.90;64.20;;;;;;4984565;28;20706;-93
2021/05/14 12:59:29;;;;;;;0.98;0.30;;;21.50;66.90;;;;;;4957105;28;20317;-90
2021/05/14 13:01:59;;;;;;;1.88;0.10;;;21.00;62.70;;;;;;4976044;28;20497;-94
2021/05/14 13:04:35;;;;;;;1.45;0.10;;;20.20;63.30;;;;;;4976335;28;20026;-95
2021/05/14 13:07:13;;;;;;;1.58;0.22;;;20.40;64.90;;;;;;4992810;28;20030;-92
2021/05/14 13:09:54;;;;;;;2.17;0.15;;;20.80;65.70;;;;;;4987236;28;20110;-93
2021/05/14 13:12:20;;;;;;;7.43;0.40;;;21.20;65.20;;;;;;4978756;28;20493;-93